Time;durP1;ratioP1;P1;durP2;ratioP2;P2;SDS_P1;SDS_P2;PMS_P1;PMS_P2;Temp;Humidity;BMP_temperature;BMP_pressure;BME280_temperature;BME280_humidity;BME280_pressure;Samples;Min_cycle;Max_cycle;Signal;HPM_P1;HPM_P2
2022/12/18 00:08:23;;;;;;;5.18;3.38;;;-3.10;99.90;;;;;;20182507;23;20053;-53
2022/12/18 00:18:25;;;;;;;6.80;4.18;;;-3.20;99.90;;;;;;20141564;23;20118;-54
2022/12/18 00:28:28;;;;;;;7.40;4.32;;;-3.20;99.90;;;;;;20204202;23;20058;-44
2022/12/18 00:38:29;;;;;;;7.97;4.85;;;-3.30;99.90;;;;;;20181125;23;20054;-50
2022/12/18 00:48:32;;;;;;;7.70;4.13;;;-3.40;99.90;;;;;;20233784;23;20057;-44
2022/12/18 00:58:34;;;;;;;5.03;3.20;;;-3.40;99.90;;;;;;20228014;23;20054;-49
2022/12/18 01:08:53;;;;;;;6.30;3.58;;;-3.40;99.90;;;;;;20158342;23;20070;-53
2022/12/18 01:18:55;;;;;;;5.88;3.25;;;-3.40;99.90;;;;;;20170668;23;20111;-42
2022/12/18 01:28:58;;;;;;;4.85;2.90;;;-3.50;99.90;;;;;;20215252;23;20062;-53
2022/12/18 01:39:01;;;;;;;5.82;3.22;;;-3.40;99.90;;;;;;20214714;23;20166;-47
2022/12/18 01:49:03;;;;;;;5.85;3.08;;;-3.40;99.90;;;;;;20224081;23;20054;-52
2022/12/18 01:59:05;;;;;;;7.45;3.42;;;-3.50;99.90;;;;;;20204550;23;20091;-45
2022/12/18 02:09:13;;;;;;;6.47;3.58;;;-3.40;99.90;;;;;;20173613;23;20513;-50
2022/12/18 02:40:54;;;;;;;5.43;3.28;;;-3.20;99.90;;;;;;20640288;24;20073;-42
2022/12/18 02:51:31;;;;;;;5.40;3.13;;;-3.40;99.90;;;;;;20122531;24;20111;31
2022/12/18 03:01:40;;;;;;;8.05;3.80;;;-3.30;99.90;;;;;;20109175;23;20051;-47
2022/12/18 03:22:30;;;;;;;6.18;3.80;;;-3.40;99.90;;;;;;20086924;23;20210;31
2022/12/18 03:43:03;;;;;;;5.82;3.55;;;-3.00;99.90;;;;;;20810887;24;20059;-50
2022/12/18 03:53:25;;;;;;;6.15;3.95;;;-2.50;99.90;;;;;;20075450;23;20475;-42
2022/12/18 04:03:31;;;;;;;5.18;3.42;;;-2.20;99.90;;;;;;20076067;24;20132;-54
2022/12/18 04:13:36;;;;;;;5.18;3.20;;;-2.10;99.90;;;;;;20074944;24;20425;-42
2022/12/18 04:23:40;;;;;;;5.07;3.08;;;-1.90;99.90;;;;;;20045511;24;20486;-51
2022/12/18 04:33:43;;;;;;;4.38;2.75;;;-1.80;99.90;;;;;;20041013;24;20127;-44
2022/12/18 04:43:45;;;;;;;5.07;2.80;;;-1.70;99.90;;;;;;20003601;24;20066;-48
2022/12/18 04:53:46;;;;;;;4.65;2.90;;;-1.50;99.90;;;;;;20071401;24;20589;-55
2022/12/18 05:03:48;;;;;;;4.93;3.25;;;-1.40;99.90;;;;;;20066031;24;20224;-42
2022/12/18 05:13:50;;;;;;;3.92;2.78;;;-1.30;99.90;;;;;;20070059;24;20446;-52
2022/12/18 05:23:51;;;;;;;4.47;2.88;;;-1.20;99.90;;;;;;20072290;24;20486;-42
2022/12/18 05:33:53;;;;;;;4.60;3.00;;;-1.00;99.90;;;;;;20030750;24;20153;-43
2022/12/18 05:43:55;;;;;;;4.18;2.60;;;-0.90;99.90;;;;;;20069836;24;20505;-55
2022/12/18 05:53:57;;;;;;;4.32;2.33;;;-0.80;99.90;;;;;;20067504;24;20131;-46
2022/12/18 06:03:59;;;;;;;3.33;2.35;;;-0.80;99.90;;;;;;20044595;24;20511;-54
2022/12/18 06:14:03;;;;;;;3.27;2.33;;;-1.00;99.90;;;;;;20068821;24;20111;-44
2022/12/18 06:24:05;;;;;;;4.85;2.50;;;-1.20;99.90;;;;;;19998971;24;20067;-43
2022/12/18 06:34:06;;;;;;;3.65;2.30;;;-1.30;99.90;;;;;;20039895;24;20135;-51
2022/12/18 06:44:08;;;;;;;4.03;2.75;;;-1.40;99.90;;;;;;20070311;24;20092;-50
2022/12/18 06:54:09;;;;;;;4.13;2.83;;;-1.80;99.90;;;;;;20066722;24;20108;-53
2022/12/18 07:04:14;;;;;;;5.38;3.13;;;-2.20;99.90;;;;;;20049377;24;20063;31
2022/12/18 07:14:16;;;;;;;4.47;2.80;;;-2.60;99.90;;;;;;20039802;23;20116;-43
2022/12/18 07:24:18;;;;;;;4.95;3.00;;;-2.80;99.90;;;;;;20043946;24;20058;-53
2022/12/18 07:34:19;;;;;;;5.22;2.90;;;-2.90;99.90;;;;;;20054083;24;20120;-43
2022/12/18 07:44:21;;;;;;;7.38;3.50;;;-3.00;99.90;;;;;;20067102;24;20208;-53
2022/12/18 07:54:23;;;;;;;4.60;2.88;;;-3.00;99.90;;;;;;20669729;24;20126;-45
2022/12/18 08:04:25;;;;;;;7.78;3.70;;;-2.60;99.90;;;;;;20791363;24;20120;-56
2022/12/18 08:14:26;;;;;;;8.27;4.50;;;-2.00;99.90;;;;;;19888646;29;20069;-63
2022/12/18 08:24:28;;;;;;;9.02;4.55;;;-1.30;99.90;;;;;;19887678;29;20039;-53
2022/12/18 08:34:30;;;;;;;8.07;5.18;;;-0.50;99.90;;;;;;19886830;29;20088;-54
2022/12/18 08:44:38;;;;;;;9.43;5.68;;;0.30;99.90;;;;;;19885045;29;20042;-55
2022/12/18 08:54:40;;;;;;;10.80;6.65;;;1.20;99.90;;;;;;19885552;29;20401;-55
2022/12/18 09:04:41;;;;;;;9.10;6.00;;;1.90;99.90;;;;;;19884344;29;20108;-55
2022/12/18 09:14:43;;;;;;;8.73;5.03;;;2.60;99.90;;;;;;19885641;29;20042;-55
2022/12/18 09:24:45;;;;;;;9.18;5.28;;;3.20;99.90;;;;;;19882530;29;20042;-54
2022/12/18 09:34:46;;;;;;;8.38;5.80;;;3.70;99.90;;;;;;19880423;29;20036;-56
2022/12/18 09:44:51;;;;;;;9.82;6.20;;;4.10;99.90;;;;;;19882649;29;20517;-53
2022/12/18 09:55:11;;;;;;;7.18;4.70;;;4.40;99.90;;;;;;19882760;29;20049;-52
2022/12/18 10:05:59;;;;;;;5.57;3.92;;;4.80;99.90;;;;;;19880373;29;20116;-53
2022/12/18 10:16:10;;;;;;;3.50;2.35;;;5.20;99.90;;;;;;19879484;29;20042;-51
2022/12/18 10:26:12;;;;;;;3.90;3.15;;;5.50;99.90;;;;;;19880093;29;20042;-57
2022/12/18 10:36:14;;;;;;;5.20;3.70;;;5.70;99.90;;;;;;19876862;29;20107;-53
2022/12/18 10:46:22;;;;;;;4.75;3.75;;;5.70;99.90;;;;;;19883750;29;20068;-54
2022/12/18 10:56:26;;;;;;;4.63;3.50;;;6.00;99.90;;;;;;19893683;29;20045;-55
2022/12/18 11:06:29;;;;;;;5.07;3.63;;;6.10;99.90;;;;;;19891497;29;20054;-63
2022/12/18 11:16:43;;;;;;;6.03;3.83;;;6.10;99.90;;;;;;19891708;29;20043;-55
2022/12/18 11:26:45;;;;;;;6.22;4.50;;;5.90;99.90;;;;;;19892017;29;20035;-57
2022/12/18 11:36:48;;;;;;;7.43;4.40;;;5.90;99.90;;;;;;19890609;29;20039;-54
2022/12/18 11:46:55;;;;;;;6.38;4.65;;;5.90;99.90;;;;;;19888731;29;20046;-59
2022/12/18 11:57:10;;;;;;;6.45;4.80;;;5.90;99.90;;;;;;19884519;29;20043;-54
2022/12/18 12:07:17;;;;;;;6.68;4.78;;;5.90;99.90;;;;;;19888825;29;20075;-55
2022/12/18 12:17:31;;;;;;;8.13;4.75;;;5.60;99.90;;;;;;19887292;29;20038;-53
2022/12/18 12:27:41;;;;;;;8.10;5.20;;;5.50;99.90;;;;;;19887411;29;20104;-56
2022/12/18 12:37:49;;;;;;;6.38;4.78;;;5.60;99.90;;;;;;19885212;29;20099;-55
2022/12/18 12:47:52;;;;;;;6.97;4.80;;;5.50;99.90;;;;;;19886138;29;20478;-56
2022/12/18 12:58:05;;;;;;;6.63;4.50;;;5.40;99.90;;;;;;19884005;29;20427;-57
2022/12/18 13:08:21;;;;;;;7.97;5.03;;;4.70;99.90;;;;;;19883966;29;20452;-56
2022/12/18 13:18:25;;;;;;;8.23;5.18;;;3.90;99.90;;;;;;19884060;29;20385;-58
2022/12/18 13:28:42;;;;;;;6.57;4.70;;;3.40;99.90;;;;;;19882081;29;20482;-55
2022/12/18 13:38:44;;;;;;;7.50;4.57;;;2.90;99.90;;;;;;19865066;29;20042;-57
2022/12/18 13:49:00;;;;;;;7.20;5.07;;;2.60;99.90;;;;;;19882419;29;20040;-57
2022/12/18 13:59:20;;;;;;;8.38;4.80;;;2.30;99.90;;;;;;19881053;29;20030;-56
2022/12/18 14:09:29;;;;;;;8.38;5.03;;;1.80;99.90;;;;;;19880114;29;20104;-58
2022/12/18 14:19:31;;;;;;;7.22;4.72;;;1.40;99.90;;;;;;19879315;29;20046;-55
2022/12/18 14:29:35;;;;;;;7.32;5.00;;;1.20;99.90;;;;;;19879076;29;20092;-57
2022/12/18 14:39:36;;;;;;;7.65;5.45;;;0.90;99.90;;;;;;19879024;29;20061;-55
2022/12/18 14:49:42;;;;;;;9.20;6.13;;;0.50;99.90;;;;;;19879581;29;20035;-56
2022/12/18 14:59:43;;;;;;;8.27;5.32;;;0.10;99.90;;;;;;19880519;29;20363;-54
2022/12/18 15:10:10;;;;;;;7.47;4.72;;;-0.20;99.90;;;;;;19878221;29;20394;-58
2022/12/18 15:20:13;;;;;;;6.00;3.70;;;-0.60;99.90;;;;;;19877963;29;20363;-54
2022/12/18 15:30:18;;;;;;;5.28;2.60;;;-1.00;99.90;;;;;;19881936;29;20474;-58
2022/12/18 15:40:22;;;;;;;8.15;4.35;;;-1.40;99.90;;;;;;19890989;29;20478;-62
2022/12/18 15:50:24;;;;;;;5.95;3.60;;;-1.60;99.90;;;;;;19889013;29;20822;-55
2022/12/18 16:00:27;;;;;;;5.00;2.60;;;-1.90;99.90;;;;;;19890227;29;20051;-62
2022/12/18 16:10:29;;;;;;;3.17;1.67;;;-2.10;99.90;;;;;;19888910;29;20055;-55
2022/12/18 16:20:30;;;;;;;2.38;1.40;;;-2.30;99.90;;;;;;19888240;29;20394;-57
2022/12/18 16:30:32;;;;;;;2.97;0.90;;;-2.50;99.90;;;;;;19887530;29;20477;-58
2022/12/18 16:41:30;;;;;;;2.15;0.93;;;-2.60;99.90;;;;;;19887013;29;20034;-57
2022/12/18 16:51:04;;;;;;;1.23;0.60;;;-2.70;99.90;;;;;;19884307;29;20042;-53
2022/12/18 17:01:10;;;;;;;1.40;0.70;;;-2.70;99.90;;;;;;19885524;29;20046;-53
2022/12/18 17:11:12;;;;;;;2.17;1.00;;;-2.70;99.90;;;;;;19883248;29;20070;-57
2022/12/18 17:21:14;;;;;;;2.05;1.00;;;-2.90;99.90;;;;;;19883783;29;20039;-55
2022/12/18 17:31:21;;;;;;;1.67;0.70;;;-3.00;99.90;;;;;;19866617;29;20552;-63
2022/12/18 17:41:24;;;;;;;1.88;1.05;;;-3.00;99.90;;;;;;19882555;29;20449;-56
2022/12/18 17:51:26;;;;;;;1.27;0.80;;;-2.90;99.90;;;;;;20576194;24;20094;-48
2022/12/18 18:01:29;;;;;;;2.42;0.90;;;-2.90;99.90;;;;;;20039740;24;20203;-53
2022/12/18 18:21:53;;;;;;;1.10;0.57;;;-2.60;99.90;;;;;;20038212;24;20058;-54
2022/12/18 18:31:55;;;;;;;1.88;0.80;;;-2.70;99.90;;;;;;20015632;24;20152;-48
2022/12/18 18:42:29;;;;;;;1.30;0.60;;;-2.80;99.90;;;;;;20028532;24;20215;-42
2022/12/18 18:52:37;;;;;;;1.00;0.50;;;-2.80;99.90;;;;;;20075100;24;20097;31
2022/12/18 19:02:39;;;;;;;0.90;0.30;;;-2.70;99.90;;;;;;20098238;23;20126;-44
2022/12/18 19:23:01;;;;;;;0.50;0.20;;;-2.80;99.90;;;;;;20056688;24;20591;-44
2022/12/18 19:33:03;;;;;;;0.73;0.43;;;-2.80;99.90;;;;;;20066495;24;20142;-53
2022/12/18 19:43:05;;;;;;;0.80;0.20;;;-2.80;99.90;;;;;;20049891;24;20096;-42
2022/12/18 19:53:13;;;;;;;0.82;0.40;;;-2.80;99.90;;;;;;19996967;24;20067;31
2022/12/18 20:03:18;;;;;;;1.08;0.20;;;-3.00;99.90;;;;;;19993169;24;20063;-51
2022/12/18 20:13:20;;;;;;;0.55;0.30;;;-3.00;99.90;;;;;;20045351;24;20120;-40
2022/12/18 20:23:22;;;;;;;0.60;0.30;;;-3.10;99.90;;;;;;20073265;24;20067;-53
2022/12/18 20:33:24;;;;;;;0.80;0.30;;;-3.00;99.90;;;;;;20059474;24;20532;-49
2022/12/18 20:43:29;;;;;;;0.92;0.40;;;-3.10;99.90;;;;;;20015743;24;1567824;-52
2022/12/18 20:53:41;;;;;;;0.90;0.40;;;-3.30;99.90;;;;;;20667320;24;20025;31
2022/12/18 21:04:29;;;;;;;0.50;0.30;;;-3.40;99.90;;;;;;20523571;24;20078;31
2022/12/18 21:14:48;;;;;;;0.50;0.30;;;-3.50;99.90;;;;;;20023194;24;20063;-55
2022/12/18 21:24:51;;;;;;;0.60;0.30;;;-3.50;99.90;;;;;;19956801;24;20133;-44
2022/12/18 21:34:52;;;;;;;0.70;0.30;;;-3.60;99.90;;;;;;20051220;24;20129;-54
2022/12/18 21:44:54;;;;;;;0.45;0.30;;;-3.70;99.90;;;;;;20070268;24;20674;-43
2022/12/18 21:54:56;;;;;;;0.68;0.40;;;-3.60;99.90;;;;;;20051672;24;20070;-52
2022/12/18 22:04:59;;;;;;;0.52;0.25;;;-3.70;99.90;;;;;;20069973;23;20132;-42
2022/12/18 22:15:03;;;;;;;1.13;0.50;;;-3.70;99.90;;;;;;19997201;24;20063;-48
2022/12/18 22:25:05;;;;;;;1.40;0.20;;;-3.80;99.90;;;;;;20059382;24;20062;-54
2022/12/18 22:35:07;;;;;;;0.70;0.40;;;-3.70;99.90;;;;;;20023378;24;20067;-48
2022/12/18 22:45:09;;;;;;;0.50;0.20;;;-3.50;99.90;;;;;;20050312;24;20117;-53
2022/12/18 22:55:12;;;;;;;0.68;0.30;;;-3.10;99.90;;;;;;20071487;24;20071;-42
2022/12/18 23:05:14;;;;;;;0.50;0.30;;;-2.70;99.90;;;;;;20009823;24;20095;-44
2022/12/18 23:15:16;;;;;;;0.70;0.45;;;-2.60;99.90;;;;;;20062381;24;20374;-51
2022/12/18 23:25:18;;;;;;;1.27;0.30;;;-2.30;99.90;;;;;;20078166;24;20066;-43
2022/12/18 23:35:19;;;;;;;0.85;0.40;;;-2.20;99.90;;;;;;20050187;23;20861;-53
2022/12/18 23:45:24;;;;;;;0.87;0.40;;;-2.10;99.90;;;;;;20078705;24;20514;31
2022/12/18 23:55:26;;;;;;;1.63;1.08;;;-2.20;99.90;;;;;;20137229;23;20070;-47
